sensor_id;sensor_type;location;lat;lon;timestamp;P1;durP1;ratioP1;P2;durP2;ratioP2
53927;SDS011;39837;47.630;18.822;2023-02-22T00:01:39;2.97;;;2.72;;
53927;SDS011;39837;47.630;18.822;2023-02-22T00:04:33;1.98;;;1.88;;
53927;SDS011;39837;47.630;18.822;2023-02-22T00:07:18;2.70;;;2.30;;
53927;SDS011;39837;47.630;18.822;2023-02-22T00:10:03;2.58;;;2.40;;
53927;SDS011;39837;47.630;18.822;2023-02-22T00:12:52;2.38;;;2.17;;
53927;SDS011;39837;47.630;18.822;2023-02-22T00:15:38;3.70;;;3.22;;
53927;SDS011;39837;47.630;18.822;2023-02-22T00:18:27;5.85;;;2.88;;
53927;SDS011;39837;47.630;18.822;2023-02-22T00:21:12;4.13;;;2.65;;
53927;SDS011;39837;47.630;18.822;2023-02-22T00:23:57;3.45;;;3.05;;
53927;SDS011;39837;47.630;18.822;2023-02-22T00:26:41;2.88;;;2.35;;
53927;SDS011;39837;47.630;18.822;2023-02-22T00:29:25;4.13;;;3.08;;
53927;SDS011;39837;47.630;18.822;2023-02-22T00:32:09;3.75;;;3.28;;
53927;SDS011;39837;47.630;18.822;2023-02-22T00:34:53;4.45;;;2.85;;
53927;SDS011;39837;47.630;18.822;2023-02-22T00:37:37;8.00;;;4.72;;
53927;SDS011;39837;47.630;18.822;2023-02-22T00:40:25;7.10;;;4.38;;
53927;SDS011;39837;47.630;18.822;2023-02-22T00:43:13;3.38;;;3.08;;
53927;SDS011;39837;47.630;18.822;2023-02-22T00:45:57;4.13;;;2.70;;
53927;SDS011;39837;47.630;18.822;2023-02-22T00:48:42;6.25;;;4.03;;
53927;SDS011;39837;47.630;18.822;2023-02-22T00:51:27;4.60;;;4.10;;
53927;SDS011;39837;47.630;18.822;2023-02-22T00:54:11;6.75;;;4.32;;
53927;SDS011;39837;47.630;18.822;2023-02-22T00:56:57;5.57;;;4.35;;
53927;SDS011;39837;47.630;18.822;2023-02-22T00:59:41;2.83;;;2.55;;
53927;SDS011;39837;47.630;18.822;2023-02-22T01:02:25;3.85;;;3.22;;
53927;SDS011;39837;47.630;18.822;2023-02-22T01:05:10;5.93;;;3.03;;
53927;SDS011;39837;47.630;18.822;2023-02-22T01:07:56;3.72;;;3.40;;
53927;SDS011;39837;47.630;18.822;2023-02-22T01:10:41;3.45;;;3.15;;
53927;SDS011;39837;47.630;18.822;2023-02-22T01:13:25;6.88;;;4.32;;
53927;SDS011;39837;47.630;18.822;2023-02-22T01:16:09;4.68;;;4.22;;
53927;SDS011;39837;47.630;18.822;2023-02-22T01:18:53;12.45;;;3.38;;
53927;SDS011;39837;47.630;18.822;2023-02-22T01:21:41;3.33;;;3.10;;
53927;SDS011;39837;47.630;18.822;2023-02-22T01:24:25;12.60;;;3.00;;
53927;SDS011;39837;47.630;18.822;2023-02-22T01:27:10;3.08;;;2.88;;
53927;SDS011;39837;47.630;18.822;2023-02-22T01:29:54;7.00;;;3.50;;
53927;SDS011;39837;47.630;18.822;2023-02-22T01:32:39;3.22;;;3.03;;
53927;SDS011;39837;47.630;18.822;2023-02-22T01:35:25;2.88;;;2.65;;
53927;SDS011;39837;47.630;18.822;2023-02-22T01:38:11;2.80;;;2.60;;
53927;SDS011;39837;47.630;18.822;2023-02-22T01:40:54;3.15;;;2.88;;
53927;SDS011;39837;47.630;18.822;2023-02-22T01:43:39;2.40;;;2.30;;
53927;SDS011;39837;47.630;18.822;2023-02-22T01:46:24;2.60;;;2.38;;
53927;SDS011;39837;47.630;18.822;2023-02-22T01:49:09;11.13;;;2.50;;
53927;SDS011;39837;47.630;18.822;2023-02-22T01:51:54;3.05;;;2.67;;
53927;SDS011;39837;47.630;18.822;2023-02-22T01:54:42;2.67;;;2.47;;
53927;SDS011;39837;47.630;18.822;2023-02-22T01:57:30;3.58;;;3.28;;
53927;SDS011;39837;47.630;18.822;2023-02-22T02:00:17;3.25;;;2.92;;
53927;SDS011;39837;47.630;18.822;2023-02-22T02:03:06;7.55;;;3.83;;
53927;SDS011;39837;47.630;18.822;2023-02-22T02:05:52;7.07;;;3.20;;
53927;SDS011;39837;47.630;18.822;2023-02-22T02:08:48;7.18;;;3.72;;
53927;SDS011;39837;47.630;18.822;2023-02-22T02:11:44;2.80;;;2.60;;
53927;SDS011;39837;47.630;18.822;2023-02-22T02:14:30;3.80;;;3.47;;
53927;SDS011;39837;47.630;18.822;2023-02-22T02:17:17;3.38;;;2.95;;
53927;SDS011;39837;47.630;18.822;2023-02-22T02:26:21;2.13;;;2.03;;
53927;SDS011;39837;47.630;18.822;2023-02-22T02:32:10;2.97;;;2.78;;
53927;SDS011;39837;47.630;18.822;2023-02-22T02:35:02;5.40;;;3.97;;
53927;SDS011;39837;47.630;18.822;2023-02-22T02:40:46;2.95;;;2.75;;
53927;SDS011;39837;47.630;18.822;2023-02-22T02:52:40;4.93;;;4.55;;
53927;SDS011;39837;47.630;18.822;2023-02-22T02:55:25;5.40;;;4.68;;
53927;SDS011;39837;47.630;18.822;2023-02-22T02:58:15;3.80;;;3.50;;
53927;SDS011;39837;47.630;18.822;2023-02-22T03:01:01;3.30;;;3.10;;
53927;SDS011;39837;47.630;18.822;2023-02-22T03:07:27;3.00;;;2.80;;
53927;SDS011;39837;47.630;18.822;2023-02-22T03:15:33;3.15;;;2.83;;
53927;SDS011;39837;47.630;18.822;2023-02-22T03:30:17;4.82;;;3.13;;
53927;SDS011;39837;47.630;18.822;2023-02-22T03:33:11;2.60;;;2.38;;
53927;SDS011;39837;47.630;18.822;2023-02-22T03:36:32;2.95;;;2.78;;
53927;SDS011;39837;47.630;18.822;2023-02-22T03:39:10;6.93;;;2.70;;
53927;SDS011;39837;47.630;18.822;2023-02-22T03:42:08;2.70;;;2.60;;
53927;SDS011;39837;47.630;18.822;2023-02-22T03:44:56;3.80;;;3.47;;
53927;SDS011;39837;47.630;18.822;2023-02-22T03:47:43;3.65;;;3.10;;
53927;SDS011;39837;47.630;18.822;2023-02-22T03:50:31;3.50;;;3.20;;
53927;SDS011;39837;47.630;18.822;2023-02-22T03:53:18;3.40;;;3.08;;
53927;SDS011;39837;47.630;18.822;2023-02-22T03:56:03;4.03;;;3.22;;
53927;SDS011;39837;47.630;18.822;2023-02-22T03:58:49;4.97;;;2.88;;
53927;SDS011;39837;47.630;18.822;2023-02-22T04:01:34;3.03;;;2.83;;
53927;SDS011;39837;47.630;18.822;2023-02-22T04:04:18;2.97;;;2.75;;
53927;SDS011;39837;47.630;18.822;2023-02-22T04:07:03;2.97;;;2.78;;
53927;SDS011;39837;47.630;18.822;2023-02-22T04:09:47;5.28;;;3.40;;
53927;SDS011;39837;47.630;18.822;2023-02-22T04:12:31;6.30;;;3.78;;
53927;SDS011;39837;47.630;18.822;2023-02-22T04:15:18;2.92;;;2.72;;
53927;SDS011;39837;47.630;18.822;2023-02-22T04:18:04;3.40;;;3.10;;
53927;SDS011;39837;47.630;18.822;2023-02-22T04:20:48;4.38;;;3.25;;
53927;SDS011;39837;47.630;18.822;2023-02-22T04:23:32;4.32;;;3.92;;
53927;SDS011;39837;47.630;18.822;2023-02-22T04:26:16;5.10;;;3.25;;
53927;SDS011;39837;47.630;18.822;2023-02-22T04:29:00;4.00;;;3.05;;
53927;SDS011;39837;47.630;18.822;2023-02-22T04:31:44;4.50;;;4.10;;
53927;SDS011;39837;47.630;18.822;2023-02-22T04:34:29;3.92;;;3.63;;
53927;SDS011;39837;47.630;18.822;2023-02-22T04:37:13;4.13;;;3.72;;
53927;SDS011;39837;47.630;18.822;2023-02-22T04:39:57;3.65;;;3.35;;
53927;SDS011;39837;47.630;18.822;2023-02-22T04:42:41;3.50;;;3.30;;
53927;SDS011;39837;47.630;18.822;2023-02-22T04:45:25;4.80;;;3.92;;
53927;SDS011;39837;47.630;18.822;2023-02-22T04:48:10;4.22;;;3.03;;
53927;SDS011;39837;47.630;18.822;2023-02-22T04:50:53;2.90;;;2.70;;
53927;SDS011;39837;47.630;18.822;2023-02-22T04:53:37;3.20;;;2.97;;
53927;SDS011;39837;47.630;18.822;2023-02-22T04:56:21;3.30;;;3.00;;
53927;SDS011;39837;47.630;18.822;2023-02-22T04:59:06;2.65;;;2.45;;
53927;SDS011;39837;47.630;18.822;2023-02-22T05:01:49;3.97;;;3.67;;
53927;SDS011;39837;47.630;18.822;2023-02-22T05:04:33;2.70;;;2.50;;
53927;SDS011;39837;47.630;18.822;2023-02-22T05:07:20;6.68;;;3.17;;
53927;SDS011;39837;47.630;18.822;2023-02-22T05:10:04;10.52;;;3.47;;
53927;SDS011;39837;47.630;18.822;2023-02-22T05:12:48;3.78;;;2.95;;
53927;SDS011;39837;47.630;18.822;2023-02-22T05:15:32;4.32;;;3.05;;
53927;SDS011;39837;47.630;18.822;2023-02-22T05:18:16;3.92;;;3.47;;
53927;SDS011;39837;47.630;18.822;2023-02-22T05:21:00;3.72;;;2.63;;
53927;SDS011;39837;47.630;18.822;2023-02-22T05:23:44;3.20;;;2.92;;
53927;SDS011;39837;47.630;18.822;2023-02-22T05:26:28;3.67;;;3.42;;
53927;SDS011;39837;47.630;18.822;2023-02-22T05:29:12;4.50;;;3.42;;
53927;SDS011;39837;47.630;18.822;2023-02-22T05:31:57;4.05;;;3.15;;
53927;SDS011;39837;47.630;18.822;2023-02-22T05:34:41;7.32;;;3.00;;
53927;SDS011;39837;47.630;18.822;2023-02-22T05:37:25;3.03;;;2.83;;
53927;SDS011;39837;47.630;18.822;2023-02-22T05:40:10;4.40;;;3.22;;
53927;SDS011;39837;47.630;18.822;2023-02-22T05:42:55;5.43;;;3.63;;
53927;SDS011;39837;47.630;18.822;2023-02-22T05:45:39;3.83;;;3.53;;
53927;SDS011;39837;47.630;18.822;2023-02-22T05:48:23;4.05;;;3.75;;
53927;SDS011;39837;47.630;18.822;2023-02-22T05:51:07;2.58;;;2.47;;
53927;SDS011;39837;47.630;18.822;2023-02-22T05:53:52;13.43;;;3.38;;
53927;SDS011;39837;47.630;18.822;2023-02-22T05:56:36;3.22;;;2.97;;
53927;SDS011;39837;47.630;18.822;2023-02-22T05:59:20;3.17;;;2.78;;
53927;SDS011;39837;47.630;18.822;2023-02-22T06:02:04;6.43;;;3.92;;
53927;SDS011;39837;47.630;18.822;2023-02-22T06:04:48;5.53;;;4.65;;
53927;SDS011;39837;47.630;18.822;2023-02-22T06:07:32;3.28;;;2.97;;
53927;SDS011;39837;47.630;18.822;2023-02-22T06:10:16;6.18;;;4.22;;
53927;SDS011;39837;47.630;18.822;2023-02-22T06:13:01;5.05;;;2.75;;
53927;SDS011;39837;47.630;18.822;2023-02-22T06:15:46;2.90;;;2.70;;
53927;SDS011;39837;47.630;18.822;2023-02-22T06:18:30;3.17;;;2.97;;
53927;SDS011;39837;47.630;18.822;2023-02-22T06:21:14;3.17;;;2.90;;
53927;SDS011;39837;47.630;18.822;2023-02-22T06:24:01;2.63;;;2.50;;
53927;SDS011;39837;47.630;18.822;2023-02-22T06:26:53;2.63;;;2.45;;
53927;SDS011;39837;47.630;18.822;2023-02-22T06:29:45;3.35;;;3.15;;
53927;SDS011;39837;47.630;18.822;2023-02-22T06:32:29;5.88;;;4.10;;
53927;SDS011;39837;47.630;18.822;2023-02-22T06:35:14;3.05;;;2.40;;
53927;SDS011;39837;47.630;18.822;2023-02-22T06:37:58;5.40;;;3.22;;
53927;SDS011;39837;47.630;18.822;2023-02-22T06:40:42;3.72;;;3.05;;
53927;SDS011;39837;47.630;18.822;2023-02-22T06:43:27;2.97;;;2.78;;
53927;SDS011;39837;47.630;18.822;2023-02-22T06:46:11;2.88;;;2.67;;
53927;SDS011;39837;47.630;18.822;2023-02-22T06:48:55;3.97;;;2.58;;
53927;SDS011;39837;47.630;18.822;2023-02-22T06:51:41;4.97;;;3.00;;
53927;SDS011;39837;47.630;18.822;2023-02-22T06:54:26;4.82;;;3.15;;
53927;SDS011;39837;47.630;18.822;2023-02-22T06:57:10;3.05;;;2.88;;
53927;SDS011;39837;47.630;18.822;2023-02-22T06:59:54;3.85;;;3.55;;
53927;SDS011;39837;47.630;18.822;2023-02-22T07:02:38;2.67;;;2.58;;
53927;SDS011;39837;47.630;18.822;2023-02-22T07:05:22;5.25;;;3.05;;
53927;SDS011;39837;47.630;18.822;2023-02-22T07:08:07;3.92;;;3.63;;
53927;SDS011;39837;47.630;18.822;2023-02-22T07:10:51;7.80;;;4.95;;
53927;SDS011;39837;47.630;18.822;2023-02-22T07:13:36;11.35;;;6.07;;
53927;SDS011;39837;47.630;18.822;2023-02-22T07:16:20;6.07;;;4.28;;
53927;SDS011;39837;47.630;18.822;2023-02-22T07:19:04;4.10;;;3.80;;
53927;SDS011;39837;47.630;18.822;2023-02-22T07:21:48;5.22;;;4.65;;
53927;SDS011;39837;47.630;18.822;2023-02-22T07:24:33;5.65;;;4.97;;
53927;SDS011;39837;47.630;18.822;2023-02-22T07:27:17;6.63;;;5.50;;
53927;SDS011;39837;47.630;18.822;2023-02-22T07:30:01;4.57;;;4.20;;
53927;SDS011;39837;47.630;18.822;2023-02-22T07:32:46;20.27;;;5.07;;
53927;SDS011;39837;47.630;18.822;2023-02-22T07:35:31;5.32;;;4.60;;
53927;SDS011;39837;47.630;18.822;2023-02-22T07:38:21;4.20;;;3.85;;
53927;SDS011;39837;47.630;18.822;2023-02-22T07:41:05;4.88;;;4.47;;
53927;SDS011;39837;47.630;18.822;2023-02-22T07:43:51;3.55;;;3.35;;
53927;SDS011;39837;47.630;18.822;2023-02-22T07:46:34;5.43;;;4.63;;
53927;SDS011;39837;47.630;18.822;2023-02-22T07:49:18;8.15;;;3.83;;
53927;SDS011;39837;47.630;18.822;2023-02-22T07:52:02;4.10;;;3.83;;
53927;SDS011;39837;47.630;18.822;2023-02-22T07:54:46;4.22;;;3.92;;
53927;SDS011;39837;47.630;18.822;2023-02-22T07:57:30;3.65;;;3.42;;
53927;SDS011;39837;47.630;18.822;2023-02-22T08:00:15;3.78;;;3.45;;
53927;SDS011;39837;47.630;18.822;2023-02-22T08:03:06;5.45;;;5.05;;
53927;SDS011;39837;47.630;18.822;2023-02-22T08:05:52;5.38;;;4.97;;
53927;SDS011;39837;47.630;18.822;2023-02-22T08:08:37;5.80;;;4.07;;
53927;SDS011;39837;47.630;18.822;2023-02-22T08:11:21;4.20;;;3.88;;
53927;SDS011;39837;47.630;18.822;2023-02-22T08:14:05;4.78;;;4.38;;
53927;SDS011;39837;47.630;18.822;2023-02-22T08:16:49;3.92;;;3.45;;
53927;SDS011;39837;47.630;18.822;2023-02-22T08:19:32;4.10;;;3.72;;
53927;SDS011;39837;47.630;18.822;2023-02-22T08:22:16;6.57;;;4.43;;
53927;SDS011;39837;47.630;18.822;2023-02-22T08:25:00;3.75;;;3.47;;
53927;SDS011;39837;47.630;18.822;2023-02-22T08:27:44;4.57;;;4.18;;
53927;SDS011;39837;47.630;18.822;2023-02-22T08:30:29;3.70;;;3.50;;
53927;SDS011;39837;47.630;18.822;2023-02-22T08:33:15;3.30;;;3.10;;
53927;SDS011;39837;47.630;18.822;2023-02-22T08:36:01;3.72;;;3.53;;
53927;SDS011;39837;47.630;18.822;2023-02-22T08:38:46;4.20;;;3.80;;
53927;SDS011;39837;47.630;18.822;2023-02-22T08:41:30;3.28;;;2.83;;
53927;SDS011;39837;47.630;18.822;2023-02-22T08:44:14;2.97;;;2.78;;
53927;SDS011;39837;47.630;18.822;2023-02-22T08:46:58;3.05;;;2.75;;
53927;SDS011;39837;47.630;18.822;2023-02-22T08:49:42;1.88;;;1.77;;
53927;SDS011;39837;47.630;18.822;2023-02-22T08:52:26;3.15;;;2.95;;
53927;SDS011;39837;47.630;18.822;2023-02-22T08:55:10;2.65;;;2.55;;
53927;SDS011;39837;47.630;18.822;2023-02-22T08:57:54;2.97;;;2.75;;
53927;SDS011;39837;47.630;18.822;2023-02-22T09:00:38;1.58;;;1.55;;
53927;SDS011;39837;47.630;18.822;2023-02-22T09:03:22;4.05;;;3.03;;
53927;SDS011;39837;47.630;18.822;2023-02-22T09:06:06;1.83;;;1.77;;
53927;SDS011;39837;47.630;18.822;2023-02-22T09:08:50;1.70;;;1.70;;
53927;SDS011;39837;47.630;18.822;2023-02-22T09:11:34;1.38;;;1.38;;
53927;SDS011;39837;47.630;18.822;2023-02-22T09:14:18;4.15;;;2.35;;
53927;SDS011;39837;47.630;18.822;2023-02-22T09:17:02;2.58;;;2.33;;
53927;SDS011;39837;47.630;18.822;2023-02-22T09:19:47;2.15;;;2.05;;
53927;SDS011;39837;47.630;18.822;2023-02-22T09:22:30;4.25;;;2.30;;
53927;SDS011;39837;47.630;18.822;2023-02-22T09:25:14;5.88;;;3.72;;
53927;SDS011;39837;47.630;18.822;2023-02-22T09:28:00;3.20;;;2.95;;
53927;SDS011;39837;47.630;18.822;2023-02-22T09:30:44;3.13;;;2.80;;
53927;SDS011;39837;47.630;18.822;2023-02-22T09:33:29;2.47;;;2.35;;
53927;SDS011;39837;47.630;18.822;2023-02-22T09:36:14;4.57;;;3.65;;
53927;SDS011;39837;47.630;18.822;2023-02-22T09:38:57;3.78;;;2.63;;
53927;SDS011;39837;47.630;18.822;2023-02-22T09:44:50;2.78;;;2.67;;
53927;SDS011;39837;47.630;18.822;2023-02-22T09:47:39;2.58;;;2.47;;
53927;SDS011;39837;47.630;18.822;2023-02-22T09:50:27;2.17;;;2.03;;
53927;SDS011;39837;47.630;18.822;2023-02-22T09:56:11;3.00;;;2.80;;
53927;SDS011;39837;47.630;18.822;2023-02-22T09:59:00;4.63;;;3.03;;
53927;SDS011;39837;47.630;18.822;2023-02-22T10:01:47;2.85;;;2.40;;
53927;SDS011;39837;47.630;18.822;2023-02-22T10:04:41;3.13;;;2.85;;
53927;SDS011;39837;47.630;18.822;2023-02-22T10:08:03;2.58;;;2.38;;
53927;SDS011;39837;47.630;18.822;2023-02-22T10:10:51;4.30;;;3.35;;
53927;SDS011;39837;47.630;18.822;2023-02-22T10:13:49;6.00;;;3.80;;
53927;SDS011;39837;47.630;18.822;2023-02-22T10:22:43;3.95;;;3.65;;
53927;SDS011;39837;47.630;18.822;2023-02-22T10:25:35;5.05;;;3.70;;
53927;SDS011;39837;47.630;18.822;2023-02-22T10:28:22;3.20;;;2.97;;
53927;SDS011;39837;47.630;18.822;2023-02-22T10:31:19;3.45;;;3.15;;
53927;SDS011;39837;47.630;18.822;2023-02-22T10:34:11;2.72;;;2.53;;
53927;SDS011;39837;47.630;18.822;2023-02-22T10:36:58;3.35;;;3.15;;
53927;SDS011;39837;47.630;18.822;2023-02-22T10:39:48;3.97;;;3.33;;
53927;SDS011;39837;47.630;18.822;2023-02-22T10:42:35;3.25;;;2.95;;
53927;SDS011;39837;47.630;18.822;2023-02-22T10:45:23;4.35;;;3.45;;
53927;SDS011;39837;47.630;18.822;2023-02-22T10:48:10;3.38;;;3.17;;
53927;SDS011;39837;47.630;18.822;2023-02-22T10:50:58;2.92;;;2.72;;
53927;SDS011;39837;47.630;18.822;2023-02-22T10:53:44;2.40;;;2.30;;
53927;SDS011;39837;47.630;18.822;2023-02-22T10:56:46;1.65;;;1.58;;
53927;SDS011;39837;47.630;18.822;2023-02-22T11:02:32;5.13;;;3.22;;
53927;SDS011;39837;47.630;18.822;2023-02-22T11:05:31;1.77;;;1.67;;
53927;SDS011;39837;47.630;18.822;2023-02-22T11:11:17;2.17;;;2.10;;
53927;SDS011;39837;47.630;18.822;2023-02-22T11:14:06;2.45;;;2.30;;
53927;SDS011;39837;47.630;18.822;2023-02-22T11:16:53;1.98;;;1.88;;
53927;SDS011;39837;47.630;18.822;2023-02-22T11:19:44;2.28;;;2.17;;
53927;SDS011;39837;47.630;18.822;2023-02-22T11:22:38;2.25;;;1.92;;
53927;SDS011;39837;47.630;18.822;2023-02-22T11:25:24;2.13;;;2.03;;
53927;SDS011;39837;47.630;18.822;2023-02-22T11:28:20;2.80;;;1.98;;
53927;SDS011;39837;47.630;18.822;2023-02-22T11:31:17;2.10;;;2.00;;
53927;SDS011;39837;47.630;18.822;2023-02-22T11:34:03;1.88;;;1.77;;
53927;SDS011;39837;47.630;18.822;2023-02-22T11:36:47;4.80;;;2.42;;
53927;SDS011;39837;47.630;18.822;2023-02-22T11:39:33;1.85;;;1.85;;
53927;SDS011;39837;47.630;18.822;2023-02-22T11:42:22;1.80;;;1.70;;
53927;SDS011;39837;47.630;18.822;2023-02-22T11:45:09;2.33;;;1.80;;
53927;SDS011;39837;47.630;18.822;2023-02-22T11:48:04;1.70;;;1.60;;
53927;SDS011;39837;47.630;18.822;2023-02-22T11:50:55;1.65;;;1.65;;
53927;SDS011;39837;47.630;18.822;2023-02-22T11:56:41;2.70;;;1.98;;
53927;SDS011;39837;47.630;18.822;2023-02-22T11:59:39;1.17;;;1.13;;
53927;SDS011;39837;47.630;18.822;2023-02-22T12:02:37;1.67;;;1.58;;
53927;SDS011;39837;47.630;18.822;2023-02-22T12:05:35;1.52;;;1.52;;
53927;SDS011;39837;47.630;18.822;2023-02-22T12:11:26;1.08;;;1.08;;
53927;SDS011;39837;47.630;18.822;2023-02-22T12:20:21;1.83;;;1.73;;
53927;SDS011;39837;47.630;18.822;2023-02-22T12:28:47;3.17;;;2.50;;
53927;SDS011;39837;47.630;18.822;2023-02-22T12:31:45;1.80;;;1.70;;
53927;SDS011;39837;47.630;18.822;2023-02-22T12:40:24;1.60;;;1.50;;
53927;SDS011;39837;47.630;18.822;2023-02-22T12:43:33;2.17;;;2.08;;
53927;SDS011;39837;47.630;18.822;2023-02-22T12:46:30;1.60;;;1.60;;
53927;SDS011;39837;47.630;18.822;2023-02-22T12:52:40;7.20;;;2.45;;
53927;SDS011;39837;47.630;18.822;2023-02-22T12:55:33;1.30;;;1.30;;
53927;SDS011;39837;47.630;18.822;2023-02-22T12:58:21;1.92;;;1.83;;
53927;SDS011;39837;47.630;18.822;2023-02-22T13:01:19;1.88;;;1.77;;
53927;SDS011;39837;47.630;18.822;2023-02-22T13:04:04;2.17;;;2.08;;
53927;SDS011;39837;47.630;18.822;2023-02-22T13:09:42;1.67;;;1.63;;
53927;SDS011;39837;47.630;18.822;2023-02-22T13:24:29;0.90;;;0.90;;
53927;SDS011;39837;47.630;18.822;2023-02-22T13:28:06;1.40;;;1.40;;
53927;SDS011;39837;47.630;18.822;2023-02-22T13:30:38;1.27;;;1.27;;
53927;SDS011;39837;47.630;18.822;2023-02-22T13:36:37;2.13;;;2.03;;
53927;SDS011;39837;47.630;18.822;2023-02-22T14:03:06;1.38;;;1.38;;
53927;SDS011;39837;47.630;18.822;2023-02-22T14:17:58;3.38;;;2.03;;
53927;SDS011;39837;47.630;18.822;2023-02-22T14:20:44;3.63;;;1.98;;
53927;SDS011;39837;47.630;18.822;2023-02-22T14:23:33;1.98;;;1.88;;
53927;SDS011;39837;47.630;18.822;2023-02-22T14:29:16;2.38;;;2.17;;
53927;SDS011;39837;47.630;18.822;2023-02-22T14:32:02;3.13;;;1.70;;
53927;SDS011;39837;47.630;18.822;2023-02-22T14:34:52;2.00;;;1.95;;
53927;SDS011;39837;47.630;18.822;2023-02-22T14:37:38;1.58;;;1.50;;
53927;SDS011;39837;47.630;18.822;2023-02-22T14:40:25;3.35;;;2.10;;
53927;SDS011;39837;47.630;18.822;2023-02-22T14:43:12;3.20;;;2.20;;
53927;SDS011;39837;47.630;18.822;2023-02-22T14:46:02;1.92;;;1.88;;
53927;SDS011;39837;47.630;18.822;2023-02-22T14:48:48;2.45;;;2.25;;
53927;SDS011;39837;47.630;18.822;2023-02-22T14:51:43;1.88;;;1.77;;
53927;SDS011;39837;47.630;18.822;2023-02-22T14:54:44;3.60;;;2.72;;
53927;SDS011;39837;47.630;18.822;2023-02-22T14:57:36;1.90;;;1.90;;
53927;SDS011;39837;47.630;18.822;2023-02-22T15:00:43;2.85;;;2.65;;
53927;SDS011;39837;47.630;18.822;2023-02-22T15:03:32;4.43;;;2.95;;
53927;SDS011;39837;47.630;18.822;2023-02-22T15:06:28;2.55;;;2.30;;
53927;SDS011;39837;47.630;18.822;2023-02-22T15:09:19;2.63;;;2.42;;
53927;SDS011;39837;47.630;18.822;2023-02-22T15:14:59;2.75;;;2.55;;
53927;SDS011;39837;47.630;18.822;2023-02-22T15:17:56;3.50;;;3.20;;
53927;SDS011;39837;47.630;18.822;2023-02-22T15:20:40;3.50;;;2.63;;
53927;SDS011;39837;47.630;18.822;2023-02-22T15:23:26;3.13;;;2.92;;
53927;SDS011;39837;47.630;18.822;2023-02-22T15:26:58;3.63;;;3.03;;
53927;SDS011;39837;47.630;18.822;2023-02-22T15:29:28;2.75;;;2.35;;
53927;SDS011;39837;47.630;18.822;2023-02-22T15:32:18;2.75;;;2.55;;
53927;SDS011;39837;47.630;18.822;2023-02-22T15:35:24;3.08;;;2.88;;
53927;SDS011;39837;47.630;18.822;2023-02-22T15:41:04;11.05;;;3.92;;
53927;SDS011;39837;47.630;18.822;2023-02-22T15:44:12;11.38;;;4.25;;
53927;SDS011;39837;47.630;18.822;2023-02-22T15:46:55;9.32;;;5.72;;
53927;SDS011;39837;47.630;18.822;2023-02-22T15:49:39;7.93;;;5.38;;
53927;SDS011;39837;47.630;18.822;2023-02-22T15:52:24;11.00;;;5.75;;
53927;SDS011;39837;47.630;18.822;2023-02-22T15:55:09;6.68;;;4.80;;
53927;SDS011;39837;47.630;18.822;2023-02-22T15:57:54;4.10;;;3.20;;
53927;SDS011;39837;47.630;18.822;2023-02-22T16:00:42;3.78;;;3.40;;
53927;SDS011;39837;47.630;18.822;2023-02-22T16:03:31;4.10;;;3.50;;
53927;SDS011;39837;47.630;18.822;2023-02-22T16:12:08;2.88;;;2.67;;
53927;SDS011;39837;47.630;18.822;2023-02-22T16:15:12;14.25;;;3.17;;
53927;SDS011;39837;47.630;18.822;2023-02-22T16:18:14;3.03;;;2.72;;
53927;SDS011;39837;47.630;18.822;2023-02-22T16:21:00;3.47;;;3.28;;
53927;SDS011;39837;47.630;18.822;2023-02-22T16:23:48;7.00;;;4.00;;
53927;SDS011;39837;47.630;18.822;2023-02-22T16:26:37;4.28;;;3.72;;
53927;SDS011;39837;47.630;18.822;2023-02-22T16:29:24;4.47;;;2.90;;
53927;SDS011;39837;47.630;18.822;2023-02-22T16:32:09;3.78;;;3.50;;
53927;SDS011;39837;47.630;18.822;2023-02-22T16:34:54;4.47;;;4.18;;
53927;SDS011;39837;47.630;18.822;2023-02-22T16:37:38;4.00;;;3.67;;
53927;SDS011;39837;47.630;18.822;2023-02-22T16:40:23;3.72;;;3.42;;
53927;SDS011;39837;47.630;18.822;2023-02-22T16:43:10;4.18;;;3.65;;
53927;SDS011;39837;47.630;18.822;2023-02-22T16:45:55;3.20;;;2.95;;
53927;SDS011;39837;47.630;18.822;2023-02-22T16:48:40;4.57;;;3.95;;
53927;SDS011;39837;47.630;18.822;2023-02-22T16:51:25;4.95;;;3.88;;
53927;SDS011;39837;47.630;18.822;2023-02-22T16:54:11;5.68;;;4.65;;
53927;SDS011;39837;47.630;18.822;2023-02-22T16:56:57;5.60;;;3.85;;
53927;SDS011;39837;47.630;18.822;2023-02-22T16:59:44;6.88;;;4.47;;
53927;SDS011;39837;47.630;18.822;2023-02-22T17:02:30;7.70;;;5.00;;
53927;SDS011;39837;47.630;18.822;2023-02-22T17:05:14;5.53;;;4.97;;
53927;SDS011;39837;47.630;18.822;2023-02-22T17:07:59;5.78;;;4.57;;
53927;SDS011;39837;47.630;18.822;2023-02-22T17:10:42;6.15;;;4.55;;
53927;SDS011;39837;47.630;18.822;2023-02-22T17:13:28;6.45;;;5.13;;
53927;SDS011;39837;47.630;18.822;2023-02-22T17:16:12;4.40;;;3.85;;
53927;SDS011;39837;47.630;18.822;2023-02-22T17:18:57;5.90;;;4.00;;
53927;SDS011;39837;47.630;18.822;2023-02-22T17:21:42;7.75;;;4.90;;
53927;SDS011;39837;47.630;18.822;2023-02-22T17:24:26;3.90;;;3.60;;
53927;SDS011;39837;47.630;18.822;2023-02-22T17:27:11;4.88;;;4.30;;
53927;SDS011;39837;47.630;18.822;2023-02-22T17:29:56;8.02;;;3.70;;
53927;SDS011;39837;47.630;18.822;2023-02-22T17:32:40;6.60;;;3.90;;
53927;SDS011;39837;47.630;18.822;2023-02-22T17:35:25;4.72;;;3.90;;
53927;SDS011;39837;47.630;18.822;2023-02-22T17:38:09;6.30;;;4.13;;
53927;SDS011;39837;47.630;18.822;2023-02-22T17:40:54;5.78;;;4.80;;
53927;SDS011;39837;47.630;18.822;2023-02-22T17:43:39;10.82;;;4.63;;
53927;SDS011;39837;47.630;18.822;2023-02-22T17:46:24;7.22;;;5.72;;
53927;SDS011;39837;47.630;18.822;2023-02-22T17:49:08;9.30;;;5.90;;
53927;SDS011;39837;47.630;18.822;2023-02-22T17:51:54;7.18;;;4.53;;
53927;SDS011;39837;47.630;18.822;2023-02-22T17:54:38;6.03;;;4.40;;
53927;SDS011;39837;47.630;18.822;2023-02-22T17:57:22;7.35;;;5.03;;
53927;SDS011;39837;47.630;18.822;2023-02-22T18:00:08;5.10;;;4.60;;
53927;SDS011;39837;47.630;18.822;2023-02-22T18:03:06;4.65;;;4.20;;
53927;SDS011;39837;47.630;18.822;2023-02-22T18:05:55;8.27;;;5.30;;
53927;SDS011;39837;47.630;18.822;2023-02-22T18:08:40;4.82;;;4.07;;
53927;SDS011;39837;47.630;18.822;2023-02-22T18:11:27;5.78;;;5.18;;
53927;SDS011;39837;47.630;18.822;2023-02-22T18:14:14;16.27;;;5.65;;
53927;SDS011;39837;47.630;18.822;2023-02-22T18:16:59;9.48;;;6.20;;
53927;SDS011;39837;47.630;18.822;2023-02-22T18:19:44;18.80;;;5.22;;
53927;SDS011;39837;47.630;18.822;2023-02-22T18:22:30;8.18;;;5.85;;
53927;SDS011;39837;47.630;18.822;2023-02-22T18:25:15;8.20;;;6.18;;
53927;SDS011;39837;47.630;18.822;2023-02-22T18:28:00;10.93;;;5.47;;
53927;SDS011;39837;47.630;18.822;2023-02-22T18:33:30;11.65;;;7.38;;
53927;SDS011;39837;47.630;18.822;2023-02-22T18:36:15;8.23;;;7.40;;
53927;SDS011;39837;47.630;18.822;2023-02-22T18:39:00;11.43;;;7.20;;
53927;SDS011;39837;47.630;18.822;2023-02-22T18:41:44;10.57;;;7.63;;
53927;SDS011;39837;47.630;18.822;2023-02-22T18:44:31;14.20;;;6.90;;
53927;SDS011;39837;47.630;18.822;2023-02-22T18:47:16;9.73;;;6.57;;
53927;SDS011;39837;47.630;18.822;2023-02-22T18:50:01;8.52;;;6.78;;
53927;SDS011;39837;47.630;18.822;2023-02-22T18:52:45;9.60;;;7.03;;
53927;SDS011;39837;47.630;18.822;2023-02-22T18:55:30;10.73;;;8.35;;
53927;SDS011;39837;47.630;18.822;2023-02-22T18:58:14;14.85;;;8.60;;
53927;SDS011;39837;47.630;18.822;2023-02-22T19:01:00;13.73;;;8.43;;
53927;SDS011;39837;47.630;18.822;2023-02-22T19:03:45;8.07;;;6.78;;
53927;SDS011;39837;47.630;18.822;2023-02-22T19:06:32;8.65;;;6.68;;
53927;SDS011;39837;47.630;18.822;2023-02-22T19:09:20;9.18;;;6.82;;